Time;durP1;ratioP1;P1;durP2;ratioP2;P2;SDS_P1;SDS_P2;PMS_P1;PMS_P2;Temp;Humidity;BMP_temperature;BMP_pressure;BME280_temperature;BME280_humidity;BME280_pressure;Samples;Min_cycle;Max_cycle;Signal;HPM_P1;HPM_P2
2023/01/10 00:00:36;;;;;;;1999.90;999.90;;;11.30;99.90;;;;;;4953867;29;20134;-79
2023/01/10 00:03:07;;;;;;;1999.90;999.90;;;11.20;99.90;;;;;;4954513;29;20035;-79
2023/01/10 00:05:34;;;;;;;1999.90;999.90;;;10.20;99.90;;;;;;4954211;29;20487;-79
2023/01/10 00:08:01;;;;;;;1999.90;999.90;;;11.00;99.90;;;;;;4954124;29;20452;-79
2023/01/10 00:10:27;;;;;;;1999.90;999.90;;;11.20;99.90;;;;;;4949566;28;20051;-80
2023/01/10 00:15:38;;;;;;;1999.90;999.90;;;11.10;99.90;;;;;;4953004;28;20090;-80
2023/01/10 00:18:03;;;;;;;1999.90;999.90;;;10.20;99.90;;;;;;4955278;28;20079;-79
2023/01/10 00:20:30;;;;;;;1999.90;999.90;;;11.20;99.90;;;;;;4939321;29;20080;-78
2023/01/10 00:22:56;;;;;;;1999.90;999.90;;;11.40;99.90;;;;;;4955673;28;20043;-78
2023/01/10 00:25:21;;;;;;;1999.90;999.90;;;10.70;99.90;;;;;;4955383;29;20054;-80
2023/01/10 00:27:54;;;;;;;1999.90;999.90;;;12.20;99.90;;;;;;4950757;28;20436;-80
2023/01/10 00:30:19;;;;;;;1999.90;999.90;;;11.20;99.90;;;;;;4955195;29;20130;-79
2023/01/10 00:32:45;;;;;;;1999.90;999.90;;;10.20;99.90;;;;;;4956314;29;20125;-78
2023/01/10 00:35:11;;;;;;;1999.90;999.90;;;12.90;99.90;;;;;;4952395;28;20065;-78
2023/01/10 00:37:39;;;;;;;1999.90;999.90;;;10.40;99.90;;;;;;4970661;28;20364;-78
2023/01/10 00:40:08;;;;;;;1999.90;999.90;;;11.30;99.90;;;;;;4957196;28;20047;-79
2023/01/10 00:45:18;;;;;;;1999.90;999.90;;;13.40;99.90;;;;;;4956927;29;19926;-78
2023/01/10 00:47:44;;;;;;;1999.90;999.90;;;10.90;99.90;;;;;;4938802;29;20389;-79
2023/01/10 00:50:10;;;;;;;1999.90;999.90;;;10.50;99.90;;;;;;4957154;29;20054;-78
2023/01/10 00:52:36;;;;;;;1999.90;999.90;;;10.50;99.90;;;;;;4955724;29;20480;-81
2023/01/10 00:55:02;;;;;;;1999.90;999.90;;;10.60;99.90;;;;;;4956961;29;20046;-77
2023/01/10 00:57:28;;;;;;;1999.90;999.90;;;11.70;99.90;;;;;;4956963;28;20047;-78
2023/01/10 00:59:53;;;;;;;1999.90;999.90;;;12.00;99.90;;;;;;4954586;29;20106;-78
2023/01/10 01:02:19;;;;;;;1999.90;999.90;;;10.80;99.90;;;;;;4956534;29;20388;-78
2023/01/10 01:04:45;;;;;;;1999.90;999.90;;;12.20;99.90;;;;;;4954371;28;20051;-79
2023/01/10 01:07:10;;;;;;;1999.90;999.90;;;11.60;99.90;;;;;;4954809;28;20047;-82
2023/01/10 01:10:25;;;;;;;1999.90;999.90;;;11.90;99.90;;;;;;4944626;28;20095;-78
2023/01/10 01:12:22;;;;;;;1999.90;999.90;;;11.90;99.90;;;;;;4954214;29;20117;-80
2023/01/10 01:14:47;;;;;;;1999.90;999.90;;;11.10;99.90;;;;;;4954746;29;21673;-78
2023/01/10 01:17:13;;;;;;;1999.90;999.90;;;11.50;99.90;;;;;;4955363;28;20047;-77
2023/01/10 01:19:39;;;;;;;1999.90;999.90;;;11.70;99.90;;;;;;4954633;28;20408;-83
2023/01/10 01:22:04;;;;;;;1999.90;999.90;;;10.90;99.90;;;;;;4953938;28;20039;-77
2023/01/10 01:24:30;;;;;;;1999.90;999.90;;;10.70;99.90;;;;;;4955471;29;20061;-78
2023/01/10 01:26:55;;;;;;;1999.90;999.90;;;10.80;99.90;;;;;;4951831;28;20055;-77
2023/01/10 01:29:21;;;;;;;1999.90;999.90;;;10.70;99.90;;;;;;4950826;28;20075;-77
2023/01/10 01:31:47;;;;;;;1999.90;999.90;;;11.60;99.90;;;;;;4951808;29;20050;-77
2023/01/10 01:34:13;;;;;;;1999.90;999.90;;;11.70;99.90;;;;;;4947882;28;20135;-77
2023/01/10 01:36:39;;;;;;;1999.90;999.90;;;11.60;99.90;;;;;;4949641;28;20052;-77
2023/01/10 01:39:05;;;;;;;1999.90;999.90;;;10.60;99.90;;;;;;4944449;28;20058;-79
2023/01/10 01:44:17;;;;;;;1999.90;999.90;;;11.50;99.90;;;;;;4954381;29;20140;-77
2023/01/10 01:47:24;;;;;;;1999.90;999.90;;;11.20;99.90;;;;;;4953135;28;20043;-79
2023/01/10 01:49:50;;;;;;;1999.90;999.90;;;10.80;99.90;;;;;;4936960;28;20059;-77
2023/01/10 01:52:26;;;;;;;1999.90;999.90;;;10.20;99.90;;;;;;4952558;28;20070;-77
2023/01/10 01:54:54;;;;;;;1999.90;999.90;;;10.70;99.90;;;;;;4955241;28;20403;-76
2023/01/10 01:57:23;;;;;;;1999.90;999.90;;;10.40;99.90;;;;;;4952433;28;20083;-77
2023/01/10 01:59:52;;;;;;;1999.90;999.90;;;9.90;99.90;;;;;;4952604;29;20082;-77
2023/01/10 02:02:22;;;;;;;1999.90;999.90;;;11.20;99.90;;;;;;4950786;29;20142;-77
2023/01/10 02:04:59;;;;;;;1999.90;999.90;;;10.30;99.90;;;;;;4955075;29;20086;-77
2023/01/10 02:07:28;;;;;;;1999.90;999.90;;;11.00;99.90;;;;;;4954081;29;20525;-76
2023/01/10 02:10:14;;;;;;;1999.90;999.90;;;10.20;99.90;;;;;;4953300;28;20062;-76
2023/01/10 02:12:41;;;;;;;1999.90;999.90;;;10.40;99.90;;;;;;4954212;29;20047;-76
2023/01/10 02:15:08;;;;;;;1999.90;999.90;;;10.30;99.90;;;;;;4952760;29;20047;-78
2023/01/10 02:17:34;;;;;;;1999.90;999.90;;;10.60;99.90;;;;;;4949454;29;20067;-77
2023/01/10 02:20:05;;;;;;;1999.90;999.90;;;11.00;99.90;;;;;;4952011;28;20190;-78
2023/01/10 02:22:38;;;;;;;1999.90;999.90;;;10.60;99.90;;;;;;4949514;29;20043;-77
2023/01/10 02:25:41;;;;;;;1999.90;999.90;;;10.80;99.90;;;;;;4952499;29;20521;-77
2023/01/10 02:28:22;;;;;;;1999.90;999.90;;;11.50;99.90;;;;;;4948186;28;20621;-76
2023/01/10 02:30:59;;;;;;;1999.90;999.90;;;11.60;99.90;;;;;;4943841;28;20051;-83
2023/01/10 02:33:50;;;;;;;1999.90;999.90;;;11.50;99.90;;;;;;4951311;29;20055;-76
2023/01/10 02:36:43;;;;;;;1999.90;999.90;;;10.40;99.90;;;;;;4933716;28;20055;-77
2023/01/10 02:39:23;;;;;;;1999.90;999.90;;;11.30;99.90;;;;;;4953808;28;20560;-76
2023/01/10 02:41:48;;;;;;;1999.90;999.90;;;11.30;99.90;;;;;;4944830;28;20049;-76
2023/01/10 02:44:20;;;;;;;1999.90;999.90;;;11.10;99.90;;;;;;4949409;28;20051;-77
2023/01/10 02:46:47;;;;;;;1999.90;999.90;;;10.80;99.90;;;;;;4940660;28;20043;-77
2023/01/10 02:49:12;;;;;;;1999.90;999.90;;;10.30;99.90;;;;;;4951457;28;20059;-79
2023/01/10 02:51:38;;;;;;;1999.90;999.90;;;10.40;99.90;;;;;;4947075;28;20392;-76
2023/01/10 02:54:13;;;;;;;1999.90;999.90;;;11.50;99.90;;;;;;4950770;29;20074;-76
2023/01/10 02:57:05;;;;;;;1999.90;999.90;;;11.30;99.90;;;;;;4953554;28;20051;-76
2023/01/10 02:59:55;;;;;;;1999.90;999.90;;;11.00;99.90;;;;;;4951007;29;20050;-76
2023/01/10 03:02:35;;;;;;;1999.90;999.90;;;10.70;99.90;;;;;;4948534;28;20062;-76
2023/01/10 03:05:18;;;;;;;1999.90;999.90;;;13.30;99.90;;;;;;4945485;28;20070;-76
2023/01/10 03:07:59;;;;;;;1999.90;999.90;;;11.50;99.90;;;;;;4938829;28;20076;-76
2023/01/10 03:10:43;;;;;;;1999.90;999.90;;;10.50;99.90;;;;;;4949250;28;20050;-76
2023/01/10 03:13:35;;;;;;;1999.90;999.90;;;9.60;99.90;;;;;;4947866;29;20039;-78
2023/01/10 03:16:03;;;;;;;1999.90;999.90;;;11.60;99.90;;;;;;4950693;28;20467;-76
2023/01/10 03:18:33;;;;;;;1999.90;999.90;;;11.40;99.90;;;;;;4951794;28;20106;-76
2023/01/10 03:21:02;;;;;;;1999.90;999.90;;;11.50;99.90;;;;;;4949868;28;20051;-76
2023/01/10 03:23:31;;;;;;;1999.90;999.90;;;11.60;99.90;;;;;;4940323;28;20039;-75
2023/01/10 03:25:57;;;;;;;1999.90;999.90;;;11.50;99.90;;;;;;4950258;29;20500;-82
2023/01/10 03:28:40;;;;;;;1999.90;999.90;;;11.30;99.90;;;;;;4938080;29;20131;-76
2023/01/10 03:31:43;;;;;;;1999.90;999.90;;;12.20;99.90;;;;;;4947392;28;20051;-76
2023/01/10 03:34:09;;;;;;;1999.90;999.90;;;12.50;99.90;;;;;;4943445;28;20052;-76
2023/01/10 03:36:58;;;;;;;1999.90;999.90;;;10.80;99.90;;;;;;4949348;28;20130;-77
2023/01/10 03:39:54;;;;;;;1999.90;999.90;;;11.00;99.90;;;;;;4953087;28;20500;-76
2023/01/10 03:46:07;;;;;;;1999.90;999.90;;;10.70;99.90;;;;;;4939012;29;20051;-76
2023/01/10 03:48:37;;;;;;;1999.90;999.90;;;11.20;99.90;;;;;;4917841;29;20048;-76
2023/01/10 03:51:06;;;;;;;1999.90;999.90;;;11.80;99.90;;;;;;4934703;29;20131;-76
2023/01/10 03:53:33;;;;;;;1999.90;999.90;;;10.70;99.90;;;;;;4953963;29;20081;-76
2023/01/10 03:55:59;;;;;;;1999.90;999.90;;;12.50;99.90;;;;;;4956985;28;20043;-81
2023/01/10 03:58:27;;;;;;;1999.90;999.90;;;10.70;99.90;;;;;;4957225;28;20083;-76
2023/01/10 04:00:52;;;;;;;1999.90;999.90;;;10.80;99.90;;;;;;4956897;29;20047;-76
2023/01/10 04:03:18;;;;;;;1999.90;999.90;;;11.40;99.90;;;;;;4957507;29;20042;-76
2023/01/10 04:05:44;;;;;;;1999.90;999.90;;;11.10;99.90;;;;;;4956788;29;20051;-76
2023/01/10 04:08:10;;;;;;;1999.90;999.90;;;12.00;99.90;;;;;;4956946;29;20047;-77
2023/01/10 04:10:36;;;;;;;1999.90;999.90;;;10.80;99.90;;;;;;4956473;28;20054;-77
2023/01/10 04:13:03;;;;;;;1999.90;999.90;;;11.00;99.90;;;;;;4955826;28;20054;-77
2023/01/10 04:15:30;;;;;;;1999.90;999.90;;;10.90;99.90;;;;;;4955324;28;20487;-76
2023/01/10 04:17:55;;;;;;;1999.90;999.90;;;11.00;99.90;;;;;;4952533;29;20122;-76
2023/01/10 04:20:24;;;;;;;1999.90;999.90;;;11.20;99.90;;;;;;4954654;29;20181;-76
2023/01/10 04:22:50;;;;;;;1999.90;999.90;;;10.70;99.90;;;;;;4954955;28;20039;-76
2023/01/10 04:25:16;;;;;;;1999.90;999.90;;;10.60;99.90;;;;;;4948177;28;20600;-76
2023/01/10 04:27:41;;;;;;;1999.90;999.90;;;11.60;99.90;;;;;;4957389;28;20047;-76
2023/01/10 04:30:08;;;;;;;1999.90;999.90;;;10.80;99.90;;;;;;4956212;28;20051;-79
2023/01/10 04:32:34;;;;;;;1999.90;999.90;;;10.60;99.90;;;;;;4956355;28;20059;-77
2023/01/10 04:34:59;;;;;;;1999.90;999.90;;;11.40;99.90;;;;;;4954159;28;20170;-79
2023/01/10 04:37:25;;;;;;;1999.90;999.90;;;10.70;99.90;;;;;;4955850;29;20051;-80
2023/01/10 04:39:51;;;;;;;1999.90;999.90;;;11.90;99.90;;;;;;4957295;29;20049;-77
2023/01/10 04:42:17;;;;;;;1999.90;999.90;;;11.80;99.90;;;;;;4956836;28;20082;-76
2023/01/10 04:44:42;;;;;;;1999.90;999.90;;;11.80;99.90;;;;;;4957423;28;20047;-76
2023/01/10 04:47:08;;;;;;;1999.90;999.90;;;11.40;99.90;;;;;;4955475;28;20035;-77
2023/01/10 04:49:34;;;;;;;1999.90;999.90;;;10.90;99.90;;;;;;4945795;29;20051;-76
2023/01/10 04:52:00;;;;;;;1999.90;999.90;;;11.80;99.90;;;;;;4951051;29;20040;-76
2023/01/10 04:54:25;;;;;;;1999.90;999.90;;;10.90;99.90;;;;;;4942727;29;20051;-77
2023/01/10 04:56:51;;;;;;;1999.90;999.90;;;10.80;99.90;;;;;;4953471;28;20039;-76
2023/01/10 04:59:17;;;;;;;1999.90;999.90;;;11.80;99.90;;;;;;4954106;29;20483;-76
2023/01/10 05:01:43;;;;;;;1999.90;999.90;;;12.00;99.90;;;;;;4952795;29;20047;-77
2023/01/10 05:04:09;;;;;;;1999.90;999.90;;;12.00;99.90;;;;;;4955080;28;20043;-77
2023/01/10 05:06:35;;;;;;;1999.90;999.90;;;11.00;99.90;;;;;;4952433;28;20047;-76
2023/01/10 05:09:02;;;;;;;1999.90;999.90;;;11.50;99.90;;;;;;4950374;28;20420;-77
2023/01/10 05:11:27;;;;;;;1999.90;999.90;;;10.90;99.90;;;;;;4953966;28;20050;-77
2023/01/10 05:13:53;;;;;;;1999.90;999.90;;;10.90;99.90;;;;;;4951348;29;20055;-77
2023/01/10 05:16:19;;;;;;;1999.90;999.90;;;11.40;99.90;;;;;;4943839;29;20047;-80
2023/01/10 05:18:44;;;;;;;1999.90;999.90;;;11.90;99.90;;;;;;4956255;28;20047;-78
2023/01/10 05:21:12;;;;;;;1999.90;999.90;;;11.00;99.90;;;;;;4939247;29;20050;-78
2023/01/10 05:23:38;;;;;;;1999.90;999.90;;;12.00;99.90;;;;;;4955410;29;20051;-79
2023/01/10 05:26:06;;;;;;;1999.90;999.90;;;11.10;99.90;;;;;;4939822;29;20098;-79
2023/01/10 05:28:32;;;;;;;1999.90;999.90;;;12.20;99.90;;;;;;4952251;28;20125;-80
2023/01/10 05:30:58;;;;;;;1999.90;999.90;;;12.20;99.90;;;;;;4954650;29;20135;-83
2023/01/10 05:33:23;;;;;;;1999.90;999.90;;;13.90;99.90;;;;;;4953878;28;20380;-86
2023/01/10 05:35:49;;;;;;;1999.90;999.90;;;11.10;99.90;;;;;;4953429;29;20137;-84
2023/01/10 05:38:15;;;;;;;1999.90;999.90;;;12.30;99.90;;;;;;4952943;28;20043;-85
2023/01/10 05:40:40;;;;;;;1999.90;999.90;;;12.20;99.90;;;;;;4951777;29;20417;-85
2023/01/10 05:43:06;;;;;;;1999.90;999.90;;;12.30;99.90;;;;;;4965634;28;20048;-84
2023/01/10 05:45:32;;;;;;;1999.90;999.90;;;11.20;99.90;;;;;;4953683;28;20074;-84
2023/01/10 05:47:57;;;;;;;1999.90;999.90;;;11.30;99.90;;;;;;4954650;28;20047;-84
2023/01/10 05:50:23;;;;;;;1999.90;999.90;;;13.20;99.90;;;;;;4931978;29;20522;-85
2023/01/10 05:52:49;;;;;;;1999.90;999.90;;;12.30;99.90;;;;;;4951595;28;20503;-85
2023/01/10 05:55:15;;;;;;;1999.90;999.90;;;11.80;99.90;;;;;;4952803;28;20055;-87
2023/01/10 05:57:40;;;;;;;1999.90;999.90;;;11.20;99.90;;;;;;4954943;28;20073;-85
2023/01/10 06:00:07;;;;;;;1999.90;999.90;;;11.50;99.90;;;;;;4953325;28;20552;-91
2023/01/10 06:02:32;;;;;;;1999.90;999.90;;;12.20;99.90;;;;;;4966517;28;20082;-84
2023/01/10 06:04:58;;;;;;;1999.90;999.90;;;12.30;99.90;;;;;;4936557;29;20078;-85
2023/01/10 06:07:24;;;;;;;1999.90;999.90;;;11.10;99.90;;;;;;4949866;28;20137;-85
2023/01/10 06:09:50;;;;;;;1999.90;999.90;;;11.80;99.90;;;;;;4952763;28;20051;-83
2023/01/10 06:12:17;;;;;;;1999.90;999.90;;;9.80;99.90;;;;;;4951694;28;20507;-84
2023/01/10 06:14:44;;;;;;;1999.90;999.90;;;11.10;99.90;;;;;;4953487;29;20495;-84
2023/01/10 06:17:09;;;;;;;1999.90;999.90;;;12.10;99.90;;;;;;4954252;29;20407;-85
2023/01/10 06:19:35;;;;;;;1999.90;999.90;;;11.90;99.90;;;;;;4950899;28;20062;-83
2023/01/10 06:22:01;;;;;;;1999.90;999.90;;;11.60;99.90;;;;;;4954950;28;20047;-84
2023/01/10 06:24:27;;;;;;;1999.90;999.90;;;12.50;99.90;;;;;;4951436;29;20062;-85
2023/01/10 06:26:53;;;;;;;1999.90;999.90;;;12.00;99.90;;;;;;4947069;28;20051;-83
2023/01/10 06:29:19;;;;;;;1999.90;999.90;;;11.30;99.90;;;;;;4947408;28;20191;-83
2023/01/10 06:31:44;;;;;;;1999.90;999.90;;;10.90;99.90;;;;;;4953787;29;20054;-83
2023/01/10 06:34:10;;;;;;;1999.90;999.90;;;;;;;;;;4944032;28;20059;-83
2023/01/10 06:36:36;;;;;;;1999.90;999.90;;;;;;;;;;4949187;29;20551;-84
2023/01/10 06:39:02;;;;;;;1999.90;999.90;;;11.80;99.90;;;;;;4954669;29;20047;-82
2023/01/10 06:41:28;;;;;;;1999.90;999.90;;;11.50;99.90;;;;;;4947293;28;20481;-84
2023/01/10 06:43:54;;;;;;;1999.90;999.90;;;11.30;99.90;;;;;;4948453;28;20047;-82
2023/01/10 06:46:20;;;;;;;1999.90;999.90;;;11.30;99.90;;;;;;4960812;28;20039;-83
2023/01/10 06:48:46;;;;;;;1999.90;999.90;;;11.50;99.90;;;;;;4953805;28;20459;-82
2023/01/10 06:51:13;;;;;;;1999.90;999.90;;;10.80;99.90;;;;;;4951887;28;20391;-83
2023/01/10 06:53:39;;;;;;;1999.90;999.90;;;10.80;99.90;;;;;;4953430;28;20078;-83
2023/01/10 06:56:05;;;;;;;1999.90;999.90;;;11.30;99.90;;;;;;4954260;29;20062;-83
2023/01/10 06:58:32;;;;;;;1999.90;999.90;;;10.80;99.90;;;;;;4949478;28;20118;-82
2023/01/10 07:00:57;;;;;;;1999.90;999.90;;;11.40;99.90;;;;;;4948748;28;20047;-82
2023/01/10 07:03:23;;;;;;;1999.90;999.90;;;10.80;99.90;;;;;;4946496;28;20752;-83
2023/01/10 07:05:49;;;;;;;1999.90;999.90;;;11.60;99.90;;;;;;4954215;28;20042;-84
2023/01/10 07:08:15;;;;;;;1999.90;999.90;;;10.80;99.90;;;;;;4954411;29;20054;-82
2023/01/10 07:10:42;;;;;;;1999.90;999.90;;;11.20;99.90;;;;;;4939918;29;20043;-83
2023/01/10 07:13:08;;;;;;;1999.90;999.90;;;12.00;99.90;;;;;;4944036;28;20425;-82
2023/01/10 07:15:35;;;;;;;1999.90;999.90;;;11.70;99.90;;;;;;4950540;29;20472;-82
2023/01/10 07:18:00;;;;;;;1999.90;999.90;;;11.10;99.90;;;;;;4954092;29;20097;-82
2023/01/10 07:20:26;;;;;;;1999.90;999.90;;;11.50;99.90;;;;;;4952900;29;20051;-81
2023/01/10 07:22:57;;;;;;;1999.90;999.90;;;11.60;99.90;;;;;;4952461;29;20039;-82
2023/01/10 07:25:24;;;;;;;1999.90;999.90;;;12.00;99.90;;;;;;4954041;28;20047;-81
2023/01/10 07:27:49;;;;;;;1999.90;999.90;;;11.10;99.90;;;;;;4938213;28;20048;-81
2023/01/10 07:30:15;;;;;;;1999.90;999.90;;;12.00;99.90;;;;;;4937373;29;20043;-84
2023/01/10 07:32:41;;;;;;;1999.90;999.90;;;11.90;99.90;;;;;;4938732;29;20098;-84
2023/01/10 07:35:07;;;;;;;1999.90;999.90;;;11.70;99.90;;;;;;4940752;29;20043;-84
2023/01/10 07:37:33;;;;;;;1999.90;999.90;;;11.50;99.90;;;;;;4953144;29;20055;-82
2023/01/10 07:39:59;;;;;;;1999.90;999.90;;;12.10;99.90;;;;;;4950036;28;20472;-82
2023/01/10 07:42:24;;;;;;;1999.90;999.90;;;10.30;99.90;;;;;;4940017;29;20071;-84
2023/01/10 07:44:50;;;;;;;1999.90;999.90;;;12.10;99.90;;;;;;4954270;28;20043;-81
2023/01/10 07:47:16;;;;;;;1999.90;999.90;;;11.00;99.90;;;;;;4954401;28;20098;-80
2023/01/10 07:49:41;;;;;;;1999.90;999.90;;;12.40;99.90;;;;;;4954098;29;20047;-80
2023/01/10 07:52:08;;;;;;;1999.90;999.90;;;11.00;99.90;;;;;;4953402;29;20098;-80
2023/01/10 07:54:34;;;;;;;1999.90;999.90;;;10.90;99.90;;;;;;4953999;29;20483;-81
2023/01/10 07:57:00;;;;;;;1999.90;999.90;;;11.00;99.90;;;;;;4954446;29;20048;-81
2023/01/10 07:59:26;;;;;;;1999.90;999.90;;;11.00;99.90;;;;;;4953182;28;20043;-80
2023/01/10 08:01:52;;;;;;;1999.90;999.90;;;11.10;99.90;;;;;;4953884;28;20105;-80
2023/01/10 08:04:19;;;;;;;1999.90;999.90;;;11.10;99.90;;;;;;4954236;28;20106;-80
2023/01/10 08:06:44;;;;;;;1999.90;999.90;;;10.90;99.90;;;;;;4954130;28;20049;-80
2023/01/10 08:09:10;;;;;;;1999.90;999.90;;;;;;;;;;4944452;28;20119;-80
2023/01/10 08:11:36;;;;;;;1999.90;999.90;;;11.60;99.90;;;;;;4949558;29;20043;-81
2023/01/10 08:14:02;;;;;;;1999.90;999.90;;;11.90;99.90;;;;;;4948253;28;20627;-80
2023/01/10 08:16:28;;;;;;;1999.90;999.90;;;10.80;99.90;;;;;;4948359;29;20134;-80
2023/01/10 08:18:53;;;;;;;1999.90;999.90;;;11.90;99.90;;;;;;4955417;28;20054;-80
2023/01/10 08:21:19;;;;;;;1999.90;999.90;;;10.80;99.90;;;;;;4957412;28;20042;-80
2023/01/10 08:23:45;;;;;;;1999.90;999.90;;;10.90;99.90;;;;;;4952283;28;20046;-82
2023/01/10 08:26:10;;;;;;;1999.90;999.90;;;10.80;99.90;;;;;;4951860;29;20502;-81
2023/01/10 08:28:36;;;;;;;1999.90;999.90;;;13.30;99.90;;;;;;4953097;29;20073;-81
2023/01/10 08:31:07;;;;;;;1999.90;999.90;;;11.80;99.90;;;;;;4954931;28;20140;-79
2023/01/10 08:33:32;;;;;;;1999.90;999.90;;;11.50;99.90;;;;;;4954031;28;20125;-82
2023/01/10 08:35:58;;;;;;;1999.90;999.90;;;11.00;99.90;;;;;;4949643;28;20146;-80
2023/01/10 08:38:24;;;;;;;1999.90;999.90;;;12.60;99.90;;;;;;4953824;29;20055;-80
2023/01/10 08:40:49;;;;;;;1999.90;999.90;;;11.80;99.90;;;;;;4953243;28;20071;-85
2023/01/10 08:43:15;;;;;;;1999.90;999.90;;;10.90;99.90;;;;;;4954624;28;20396;-79
2023/01/10 08:45:41;;;;;;;1999.90;999.90;;;10.10;99.90;;;;;;4954487;28;20178;-80
2023/01/10 08:48:08;;;;;;;1999.90;999.90;;;11.80;99.90;;;;;;4954288;28;20074;-79
2023/01/10 08:50:34;;;;;;;1999.90;999.90;;;11.40;99.90;;;;;;4953354;28;20129;-79
2023/01/10 08:53:00;;;;;;;1999.90;999.90;;;12.10;99.90;;;;;;4955027;29;20358;-79
2023/01/10 08:55:27;;;;;;;1999.90;999.90;;;11.10;99.90;;;;;;4953395;28;20054;-80
2023/01/10 08:57:53;;;;;;;1999.90;999.90;;;12.10;99.90;;;;;;4947629;28;20047;-79
2023/01/10 09:00:19;;;;;;;1999.90;999.90;;;11.20;99.90;;;;;;4944036;29;20187;-79
2023/01/10 09:02:45;;;;;;;1999.90;999.90;;;10.20;99.90;;;;;;4954912;28;20086;-79
2023/01/10 09:05:11;;;;;;;1999.90;999.90;;;11.20;99.90;;;;;;4944703;29;20053;-78
2023/01/10 09:07:40;;;;;;;1999.90;999.90;;;11.60;99.90;;;;;;4953155;28;20106;-79
2023/01/10 09:10:06;;;;;;;1999.90;999.90;;;11.20;99.90;;;;;;4956147;28;20118;-78
2023/01/10 09:15:16;;;;;;;1999.90;999.90;;;12.80;99.90;;;;;;4956145;29;20058;-80
2023/01/10 09:17:42;;;;;;;1999.90;999.90;;;12.00;99.90;;;;;;4952550;29;20121;-79
2023/01/10 09:20:09;;;;;;;1999.90;999.90;;;11.50;99.90;;;;;;4956341;28;20047;-78
2023/01/10 09:22:38;;;;;;;1999.90;999.90;;;11.20;99.90;;;;;;4951426;28;20054;-79
2023/01/10 09:25:05;;;;;;;1999.90;999.90;;;11.30;99.90;;;;;;4955058;29;20138;-81
2023/01/10 09:27:31;;;;;;;1999.90;999.90;;;12.50;99.90;;;;;;4953735;28;20110;-81
2023/01/10 09:29:57;;;;;;;1999.90;999.90;;;11.30;99.90;;;;;;4948566;28;20050;-79
2023/01/10 09:32:24;;;;;;;1999.90;999.90;;;11.30;99.90;;;;;;4950053;28;20051;-79
2023/01/10 09:34:49;;;;;;;1999.90;999.90;;;11.70;99.90;;;;;;4948812;28;20059;-82
2023/01/10 09:37:15;;;;;;;1999.90;999.90;;;11.30;99.90;;;;;;4946816;28;20412;-83
2023/01/10 09:39:41;;;;;;;1999.90;999.90;;;12.90;99.90;;;;;;4953046;28;20047;-79
2023/01/10 09:42:27;;;;;;;1999.90;999.90;;;11.40;99.90;;;;;;4955137;29;20039;-78
2023/01/10 09:45:01;;;;;;;1999.90;999.90;;;10.30;99.90;;;;;;4955075;29;20727;-79
2023/01/10 09:47:54;;;;;;;1999.90;999.90;;;11.50;99.90;;;;;;4955359;29;20051;-77
2023/01/10 09:50:45;;;;;;;1999.90;999.90;;;11.50;99.90;;;;;;4954544;28;20488;-77
2023/01/10 09:53:15;;;;;;;1999.90;999.90;;;11.30;99.90;;;;;;4955276;28;20147;-77
2023/01/10 09:55:42;;;;;;;1999.90;999.90;;;11.40;99.90;;;;;;4955124;28;20493;-77
2023/01/10 09:58:15;;;;;;;1999.90;999.90;;;11.70;99.90;;;;;;4955737;28;20074;-77
2023/01/10 10:00:52;;;;;;;1999.90;791.50;;;11.50;99.90;;;;;;4953941;28;20047;-78
2023/01/10 10:03:24;;;;;;;1999.90;999.90;;;12.60;99.90;;;;;;4954177;28;20047;-78
2023/01/10 10:05:50;;;;;;;1999.90;999.90;;;11.30;99.90;;;;;;4954892;29;20412;-78
2023/01/10 10:08:18;;;;;;;1999.90;999.90;;;12.60;99.90;;;;;;4955045;29;20047;-78
2023/01/10 10:10:51;;;;;;;;;;;12.30;99.90;;;;;;4954659;29;20122;-77
2023/01/10 10:13:48;;;;;;;1999.90;999.90;;;12.80;99.90;;;;;;4955561;28;19929;-78
2023/01/10 10:16:36;;;;;;;1999.90;999.90;;;12.80;99.90;;;;;;4955020;28;20047;-78
2023/01/10 10:19:36;;;;;;;1999.90;999.90;;;12.80;99.90;;;;;;4955275;28;20227;-78
2023/01/10 10:22:05;;;;;;;1999.90;999.90;;;11.70;99.90;;;;;;4935944;28;20044;-77
2023/01/10 10:24:30;;;;;;;1999.90;999.90;;;12.60;99.90;;;;;;4935990;29;20110;-78
2023/01/10 10:27:07;;;;;;;1999.90;999.90;;;12.30;99.90;;;;;;4935759;29;20055;-77
2023/01/10 10:29:32;;;;;;;1999.90;999.90;;;12.80;99.90;;;;;;4935481;29;20115;-77
2023/01/10 10:32:07;;;;;;;1999.90;999.90;;;12.70;99.90;;;;;;4953240;28;20047;-77
2023/01/10 10:34:40;;;;;;;1999.90;999.90;;;12.10;99.90;;;;;;4954805;28;20555;-77
2023/01/10 10:37:13;;;;;;;1999.90;999.90;;;12.70;99.90;;;;;;4957701;29;20488;-78
2023/01/10 10:39:47;;;;;;;1999.90;722.38;;;12.70;99.90;;;;;;4957824;28;20055;-79
2023/01/10 10:42:15;;;;;;;1999.90;999.90;;;12.50;99.90;;;;;;4959095;28;20047;-78
2023/01/10 10:44:44;;;;;;;1999.90;999.90;;;12.50;99.90;;;;;;4962456;28;20047;-80
2023/01/10 10:47:14;;;;;;;1999.90;999.90;;;12.80;99.90;;;;;;4963416;28;20062;-82
2023/01/10 10:49:51;;;;;;;1999.90;854.88;;;11.90;99.90;;;;;;4965159;28;20130;-78
2023/01/10 10:52:31;;;;;;;1999.90;999.90;;;12.00;99.90;;;;;;4964848;28;20050;-78
2023/01/10 10:54:57;;;;;;;1999.90;209.93;;;12.90;99.90;;;;;;4966207;29;20047;-79
2023/01/10 10:57:30;;;;;;;1999.90;999.90;;;12.90;99.90;;;;;;4969455;28;20043;-79
2023/01/10 10:59:57;;;;;;;1999.90;999.90;;;11.90;99.90;;;;;;4962065;28;20043;-76
2023/01/10 11:02:30;;;;;;;1999.90;231.63;;;12.80;99.90;;;;;;4971114;28;20055;-79
2023/01/10 11:05:03;;;;;;;1999.90;999.90;;;12.00;99.90;;;;;;4969832;28;20121;-78
2023/01/10 11:07:35;;;;;;;1999.90;999.90;;;12.30;99.90;;;;;;4958464;29;20432;-78
2023/01/10 11:12:44;;;;;;;1999.90;999.90;;;11.90;99.90;;;;;;4943210;28;20047;-78
2023/01/10 11:15:10;;;;;;;1999.90;999.90;;;12.80;99.90;;;;;;4950167;29;20058;-78
2023/01/10 11:17:39;;;;;;;1999.90;999.90;;;11.90;99.90;;;;;;4953850;29;20070;-78
2023/01/10 11:20:16;;;;;;;1999.90;999.90;;;12.10;99.90;;;;;;4952742;29;20177;-78
2023/01/10 11:22:52;;;;;;;1999.90;999.90;;;12.80;99.90;;;;;;4952463;29;20501;-91
2023/01/10 11:25:20;;;;;;;1999.90;999.90;;;12.30;99.90;;;;;;4950519;28;20046;-84
2023/01/10 11:27:59;;;;;;;1999.90;215.85;;;12.70;99.90;;;;;;4943930;28;20280;-78
2023/01/10 11:30:31;;;;;;;1999.90;178.95;;;12.80;99.90;;;;;;4933889;28;20404;-83
2023/01/10 11:33:04;;;;;;;1999.90;999.90;;;11.40;99.90;;;;;;4951670;28;20074;-78
2023/01/10 11:35:35;;;;;;;1999.90;207.70;;;12.80;99.90;;;;;;4951716;28;20404;-79
2023/01/10 11:38:15;;;;;;;1999.90;999.90;;;12.80;99.90;;;;;;4946051;28;20129;-82
2023/01/10 11:40:52;;;;;;;1999.90;209.90;;;12.00;99.90;;;;;;4960275;28;20051;-81
2023/01/10 11:43:37;;;;;;;1999.90;999.90;;;12.90;99.90;;;;;;4952979;29;20035;-80
2023/01/10 11:46:12;;;;;;;1999.90;777.45;;;11.90;99.90;;;;;;4951494;28;20047;-79
2023/01/10 11:48:50;;;;;;;1999.90;999.90;;;12.90;99.90;;;;;;4952275;28;20047;-79
2023/01/10 11:51:28;;;;;;;1999.90;999.90;;;12.80;99.90;;;;;;4952691;28;20414;-79
2023/01/10 11:54:22;;;;;;;1999.90;999.90;;;12.10;99.90;;;;;;4935308;29;20079;-81
2023/01/10 11:57:07;;;;;;;1999.90;999.90;;;10.90;99.90;;;;;;4942012;29;20055;-77
2023/01/10 11:59:33;;;;;;;1999.90;999.90;;;11.70;99.90;;;;;;4956514;29;20507;-77
2023/01/10 12:02:23;;;;;;;1999.90;999.90;;;10.30;99.90;;;;;;4955897;28;20082;-80
2023/01/10 12:04:51;;;;;;;1999.90;999.90;;;12.70;99.90;;;;;;4952028;29;20062;-78
2023/01/10 12:07:17;;;;;;;1999.90;999.90;;;11.90;99.90;;;;;;4946982;29;20052;-77
2023/01/10 12:09:54;;;;;;;1999.90;999.90;;;12.50;99.90;;;;;;4938393;29;20063;-80
2023/01/10 12:12:23;;;;;;;1999.90;999.90;;;12.70;99.90;;;;;;4938975;29;20095;-77
2023/01/10 12:14:50;;;;;;;1999.90;999.90;;;14.30;99.90;;;;;;4947023;28;20560;-77
2023/01/10 12:17:23;;;;;;;1999.90;563.55;;;12.50;99.90;;;;;;4952182;28;20054;-78
2023/01/10 12:19:52;;;;;;;1999.90;999.90;;;12.40;99.90;;;;;;4948660;28;20052;-77
2023/01/10 12:22:39;;;;;;;1991.40;529.45;;;11.80;99.90;;;;;;4953514;29;20520;-78
2023/01/10 12:25:19;;;;;;;1999.90;999.90;;;12.60;99.90;;;;;;4944579;28;20055;-77
2023/01/10 12:27:48;;;;;;;1999.90;999.90;;;12.50;99.90;;;;;;4950462;28;20047;-77
2023/01/10 12:30:22;;;;;;;1999.90;999.90;;;12.40;99.90;;;;;;4939808;28;20048;-77